Time;durP1;ratioP1;P1;durP2;ratioP2;P2;SDS_P1;SDS_P2;PMS_P1;PMS_P2;Temp;Humidity;BMP_temperature;BMP_pressure;BME280_temperature;BME280_humidity;BME280_pressure;Samples;Min_cycle;Max_cycle;Signal;HPM_P1;HPM_P2
2022/09/19 00:00:07;;;;;;;;;;;18.50;99.90;;;;;;4591076;19;19940;-26
2022/09/19 00:01:58;;;;;;;;;;;18.50;99.90;;;;;;4591153;19;19914;-24
2022/09/19 00:03:29;;;;;;;;;;;18.50;99.90;;;;;;4590176;19;20331;-24
2022/09/19 00:05:00;;;;;;;;;;;18.50;99.90;;;;;;4589505;19;19919;-26
2022/09/19 00:06:31;;;;;;;;;;;18.50;99.90;;;;;;4590469;19;19971;-23
2022/09/19 00:08:02;;;;;;;;;;;18.50;99.90;;;;;;4590947;19;20333;-26
2022/09/19 00:09:33;;;;;;;;;;;18.50;99.90;;;;;;4590505;19;19910;-29
2022/09/19 00:11:06;;;;;;;;;;;18.50;99.90;;;;;;4592079;19;19914;-26
2022/09/19 00:12:37;;;;;;;;;;;18.50;99.90;;;;;;4591201;19;19925;-26
2022/09/19 00:14:09;;;;;;;;;;;18.50;99.90;;;;;;4592635;19;19918;-25
2022/09/19 00:15:46;;;;;;;;;;;18.40;99.90;;;;;;4592105;19;19937;-24
2022/09/19 00:17:17;;;;;;;;;;;18.40;99.90;;;;;;4592838;19;20236;-23
2022/09/19 00:18:52;;;;;;;;;;;18.40;99.90;;;;;;4593090;19;19915;-26
2022/09/19 00:20:23;;;;;;;;;;;18.40;99.90;;;;;;4591069;19;19918;-26
2022/09/19 00:21:55;;;;;;;;;;;18.40;99.90;;;;;;4589686;19;19915;-29
2022/09/19 00:25:16;;;;;;;;;;;18.50;99.90;;;;;;4589809;19;20367;-24
2022/09/19 00:26:47;;;;;;;;;;;18.50;99.90;;;;;;4589563;19;19942;-24
2022/09/19 00:28:18;;;;;;;;;;;18.50;99.90;;;;;;4590563;19;20305;-26
2022/09/19 00:29:49;;;;;;;;;;;18.40;99.90;;;;;;4590024;19;19919;-26
2022/09/19 00:31:20;;;;;;;;;;;18.40;99.90;;;;;;4589442;19;19929;-25
2022/09/19 00:32:53;;;;;;;;;;;18.40;99.90;;;;;;4590127;19;19923;-24
2022/09/19 00:34:25;;;;;;;;;;;18.40;99.90;;;;;;4590547;19;19919;-26
2022/09/19 00:35:59;;;;;;;;;;;18.50;99.90;;;;;;4590935;19;19919;-24
2022/09/19 00:37:30;;;;;;;;;;;18.40;99.90;;;;;;4590571;19;19914;-27
2022/09/19 00:39:01;;;;;;;;;;;18.40;99.90;;;;;;4590697;19;20349;-26
2022/09/19 00:40:32;;;;;;;;;;;18.40;99.90;;;;;;4590680;19;19915;-23
2022/09/19 00:42:03;;;;;;;;;;;18.40;99.90;;;;;;4589549;19;19914;-23
2022/09/19 00:43:45;;;;;;;;;;;18.40;99.90;;;;;;4588940;19;19929;-25
2022/09/19 00:45:16;;;;;;;;;;;18.50;99.90;;;;;;4590876;19;19915;-24
2022/09/19 00:46:52;;;;;;;;;;;18.50;99.90;;;;;;4590641;19;19914;-25
2022/09/19 00:48:23;;;;;;;;;;;18.50;99.90;;;;;;4589480;19;19947;-27
2022/09/19 00:49:54;;;;;;;;;;;18.50;99.90;;;;;;4588987;19;20256;-26
2022/09/19 00:51:31;;;;;;;;;;;18.50;99.90;;;;;;4589426;19;19927;-25
2022/09/19 00:53:04;;;;;;;;;;;18.50;99.90;;;;;;4589221;19;20264;-24
2022/09/19 00:54:36;;;;;;;;;;;18.50;99.90;;;;;;4589602;19;20308;-28
2022/09/19 00:56:07;;;;;;;;;;;18.50;99.90;;;;;;4589037;19;19922;-24
2022/09/19 00:57:45;;;;;;;;;;;18.50;99.90;;;;;;4589787;19;19941;-25
2022/09/19 00:59:16;;;;;;;;;;;18.50;99.90;;;;;;4587867;19;19937;-27
2022/09/19 01:00:47;;;;;;;;;;;18.50;99.90;;;;;;4588011;19;20358;-25
2022/09/19 01:02:21;;;;;;;;;;;18.50;99.90;;;;;;4588315;19;19919;-24
2022/09/19 01:03:55;;;;;;;;;;;18.50;99.90;;;;;;4588349;19;19945;-25
2022/09/19 01:05:31;;;;;;;;;;;18.50;99.90;;;;;;4588341;19;19948;-25
2022/09/19 01:07:08;;;;;;;;;;;18.50;99.90;;;;;;4588314;19;19994;-26
2022/09/19 01:08:48;;;;;;;;;;;18.50;99.90;;;;;;4587699;19;20391;-24
2022/09/19 01:10:25;;;;;;;;;;;18.50;99.90;;;;;;4588023;19;19955;-28
2022/09/19 01:12:16;;;;;;;;;;;18.50;99.90;;;;;;4587314;19;19926;-25
2022/09/19 01:13:59;;;;;;;;;;;18.50;99.90;;;;;;4588039;19;19919;-27
2022/09/19 01:15:30;;;;;;;;;;;18.50;99.90;;;;;;4587915;19;19923;-26
2022/09/19 01:17:10;;;;;;;;;;;18.50;99.90;;;;;;4589963;19;19926;-26
2022/09/19 01:18:46;;;;;;;;;;;18.50;99.90;;;;;;4592487;19;20024;-26
2022/09/19 01:20:32;;;;;;;;;;;18.50;99.90;;;;;;4592563;19;19915;-26
2022/09/19 01:22:03;;;;;;;;;;;18.50;99.90;;;;;;4592651;19;19919;-26
2022/09/19 01:23:36;;;;;;;;;;;18.50;99.90;;;;;;4592532;19;20360;-26
2022/09/19 01:25:16;;;;;;;;;;;18.50;99.90;;;;;;4592342;19;20006;-27
2022/09/19 01:26:58;;;;;;;;;;;18.50;99.90;;;;;;4592473;19;20249;-27
2022/09/19 01:28:32;;;;;;;;;;;18.50;99.90;;;;;;4593288;19;20230;-25
2022/09/19 01:30:09;;;;;;;;;;;18.50;99.90;;;;;;4590676;19;19918;-27
2022/09/19 01:31:41;;;;;;;;;;;18.50;99.90;;;;;;4593262;19;19915;-26
2022/09/19 01:33:17;;;;;;;;;;;18.40;99.90;;;;;;4593189;19;19919;-24
2022/09/19 01:34:55;;;;;;;;;;;18.50;99.90;;;;;;4593388;19;19922;-25
2022/09/19 01:36:30;;;;;;;;;;;18.50;99.90;;;;;;4593135;19;19918;-26
2022/09/19 01:38:07;;;;;;;;;;;18.50;99.90;;;;;;4592855;19;19915;-26
2022/09/19 01:39:39;;;;;;;;;;;18.50;99.90;;;;;;4592906;19;19922;-26
2022/09/19 01:41:10;;;;;;;;;;;18.40;99.90;;;;;;4593942;19;19931;-25
2022/09/19 01:42:55;;;;;;;;;;;18.40;99.90;;;;;;4592422;19;19918;-26
2022/09/19 01:44:26;;;;;;;;;;;18.40;99.90;;;;;;4594183;19;19930;-26
2022/09/19 01:45:57;;;;;;;;;;;18.40;99.90;;;;;;4594110;19;20325;-25
2022/09/19 01:47:47;;;;;;;;;;;18.50;99.90;;;;;;4593882;19;19989;-26
2022/09/19 01:49:34;;;;;;;;;;;18.50;99.90;;;;;;4593035;19;19919;-26
2022/09/19 01:51:23;;;;;;;;;;;18.50;99.90;;;;;;4594271;19;19919;-27
2022/09/19 01:53:00;;;;;;;;;;;18.40;99.90;;;;;;4594013;19;19931;-27
2022/09/19 01:54:36;;;;;;;;;;;18.50;99.90;;;;;;4592830;19;20356;-24
2022/09/19 01:56:11;;;;;;;;;;;18.50;99.90;;;;;;4593581;19;19946;-27
2022/09/19 01:57:49;;;;;;;;;;;18.50;99.90;;;;;;4592889;19;19923;-29
2022/09/19 01:59:39;;;;;;;;;;;18.40;99.90;;;;;;4593758;19;19915;-27
2022/09/19 02:01:19;;;;;;;;;;;18.50;99.90;;;;;;4594001;19;19923;-25
2022/09/19 02:02:56;;;;;;;;;;;18.50;99.90;;;;;;4592748;19;19919;-27
2022/09/19 02:04:29;;;;;;;;;;;18.50;99.90;;;;;;4593346;19;19919;-26
2022/09/19 02:06:00;;;;;;;;;;;18.50;99.90;;;;;;4592751;19;20002;-25
2022/09/19 02:07:43;;;;;;;;;;;18.50;99.90;;;;;;4593032;19;19915;-23
2022/09/19 02:09:17;;;;;;;;;;;18.50;99.90;;;;;;4591855;19;20325;-24
2022/09/19 02:11:03;;;;;;;;;;;18.50;99.90;;;;;;4593364;19;19915;-24
2022/09/19 02:12:35;;;;;;;;;;;18.50;99.90;;;;;;4593094;19;20280;-25
2022/09/19 02:14:10;;;;;;;;;;;18.50;99.90;;;;;;4593728;19;19919;-25
2022/09/19 02:15:41;;;;;;;;;;;18.50;99.90;;;;;;4593583;19;19989;-23
2022/09/19 02:17:13;;;;;;;;;;;18.50;99.90;;;;;;4592428;19;19919;-26
2022/09/19 02:18:49;;;;;;;;;;;18.50;99.90;;;;;;4592170;19;20372;-25
2022/09/19 02:20:29;;;;;;;;;;;18.50;99.90;;;;;;4593333;19;19919;-24
2022/09/19 02:22:02;;;;;;;;;;;18.50;99.90;;;;;;4593686;19;20400;-27
2022/09/19 02:23:35;;;;;;;;;;;18.50;99.90;;;;;;4592167;19;19926;-29
2022/09/19 02:25:11;;;;;;;;;;;18.50;99.90;;;;;;4592004;19;19919;-23
2022/09/19 02:26:42;;;;;;;;;;;18.50;99.90;;;;;;4593152;19;20252;-26
2022/09/19 02:28:15;;;;;;;;;;;18.50;99.90;;;;;;4591865;19;19927;-26
2022/09/19 02:29:48;;;;;;;;;;;18.50;99.90;;;;;;4590823;19;19927;-24
2022/09/19 02:31:19;;;;;;;;;;;18.50;99.90;;;;;;4592832;19;19922;-23
2022/09/19 02:32:50;;;;;;;;;;;18.50;99.90;;;;;;4593303;19;19910;-29
2022/09/19 02:34:21;;;;;;;;;;;18.50;99.90;;;;;;4592336;19;19930;-29
2022/09/19 02:36:32;;;;;;;;;;;18.50;99.90;;;;;;4591908;19;19923;-26
2022/09/19 02:38:09;;;;;;;;;;;18.50;99.90;;;;;;4590806;19;20337;-24
2022/09/19 02:39:45;;;;;;;;;;;18.50;99.90;;;;;;4590859;19;19923;-24
2022/09/19 02:41:25;;;;;;;;;;;18.50;99.90;;;;;;4590963;19;19922;-27
2022/09/19 02:42:56;;;;;;;;;;;18.60;99.90;;;;;;4590170;19;19923;-26
2022/09/19 02:44:49;;;;;;;;;;;18.60;99.90;;;;;;4590718;19;19943;-26
2022/09/19 02:46:40;;;;;;;;;;;18.50;99.90;;;;;;4590712;19;19918;-26
2022/09/19 02:48:23;;;;;;;;;;;18.50;99.90;;;;;;4590136;19;19982;-24
2022/09/19 02:49:59;;;;;;;;;;;18.50;99.90;;;;;;4589498;19;19999;-24
2022/09/19 02:51:35;;;;;;;;;;;18.50;99.90;;;;;;4590813;19;19919;-25
2022/09/19 02:53:07;;;;;;;;;;;18.60;99.90;;;;;;4590858;19;19923;-27
2022/09/19 02:54:39;;;;;;;;;;;18.60;99.90;;;;;;4590458;19;19919;-29
2022/09/19 02:56:13;;;;;;;;;;;18.50;99.90;;;;;;4590537;19;19929;-27
2022/09/19 02:57:45;;;;;;;;;;;18.60;99.90;;;;;;4590802;19;19918;-27
2022/09/19 02:59:21;;;;;;;;;;;18.60;99.90;;;;;;4590448;19;19929;-27
2022/09/19 03:00:53;;;;;;;;;;;18.50;99.90;;;;;;4590608;19;19915;-25
2022/09/19 03:02:25;;;;;;;;;;;18.60;99.90;;;;;;4590486;19;19915;-27
2022/09/19 03:04:12;;;;;;;;;;;18.60;99.90;;;;;;4590194;19;19968;-29
2022/09/19 03:05:44;;;;;;;;;;;18.60;99.90;;;;;;4590755;19;19923;-25
2022/09/19 03:07:22;;;;;;;;;;;18.60;99.90;;;;;;4590210;19;19926;-25
2022/09/19 03:08:52;;;;;;;;;;;18.60;99.90;;;;;;4590564;19;19927;-26
2022/09/19 03:10:25;;;;;;;;;;;18.60;99.90;;;;;;4592454;19;19926;-25
2022/09/19 03:12:09;;;;;;;;;;;18.60;99.90;;;;;;4590985;19;19940;-26
2022/09/19 03:13:41;;;;;;;;;;;18.60;99.90;;;;;;4590090;19;20008;-26
2022/09/19 03:15:12;;;;;;;;;;;18.60;99.90;;;;;;4591841;19;20602;-24
2022/09/19 03:16:43;;;;;;;;;;;18.60;99.90;;;;;;4591133;19;19914;-26
2022/09/19 03:18:15;;;;;;;;;;;18.60;99.90;;;;;;4591369;19;19938;-25
2022/09/19 03:19:46;;;;;;;;;;;18.60;99.90;;;;;;4591019;19;19919;-26
2022/09/19 03:21:18;;;;;;;;;;;18.60;99.90;;;;;;4591182;19;19926;-26
2022/09/19 03:22:50;;;;;;;;;;;18.60;99.90;;;;;;4591187;19;20284;-27
2022/09/19 03:24:21;;;;;;;;;;;18.50;99.90;;;;;;4591300;19;19919;-26
2022/09/19 03:25:52;;;;;;;;;;;18.60;99.90;;;;;;4591504;19;19927;-30
2022/09/19 03:27:23;;;;;;;;;;;18.60;99.90;;;;;;4592111;19;19915;-25
2022/09/19 03:28:55;;;;;;;;;;;18.60;99.90;;;;;;4591689;19;20329;-27
2022/09/19 03:30:25;;;;;;;;;;;18.60;99.90;;;;;;4591788;19;19967;-26
2022/09/19 03:31:56;;;;;;;;;;;18.50;99.90;;;;;;4591644;19;19911;-27
2022/09/19 03:33:27;;;;;;;;;;;18.50;99.90;;;;;;4591751;19;20246;-28
2022/09/19 03:34:59;;;;;;;;;;;18.60;99.90;;;;;;4591917;19;20377;-24
2022/09/19 03:36:33;;;;;;;;;;;18.60;99.90;;;;;;4591811;19;19915;-23
2022/09/19 03:38:04;;;;;;;;;;;18.50;99.90;;;;;;4591850;19;19923;-28
2022/09/19 03:39:35;;;;;;;;;;;18.50;99.90;;;;;;4591332;19;19923;-24
2022/09/19 03:41:06;;;;;;;;;;;18.60;99.90;;;;;;4591663;19;19945;-28
2022/09/19 03:42:37;;;;;;;;;;;18.50;99.90;;;;;;4591408;19;20270;-24
2022/09/19 03:44:08;;;;;;;;;;;18.50;99.90;;;;;;4591893;19;19918;-28
2022/09/19 03:45:39;;;;;;;;;;;18.50;99.90;;;;;;4591557;19;19955;-28
2022/09/19 03:47:10;;;;;;;;;;;18.50;99.90;;;;;;4591367;19;19922;-27
2022/09/19 03:48:44;;;;;;;;;;;18.60;99.90;;;;;;4591360;19;19922;-26
2022/09/19 03:50:15;;;;;;;;;;;18.50;99.90;;;;;;4591472;19;19925;-27
2022/09/19 03:51:46;;;;;;;;;;;18.50;99.90;;;;;;4591557;19;19914;-27
2022/09/19 03:53:19;;;;;;;;;;;18.50;99.90;;;;;;4591345;19;19953;-24
2022/09/19 03:54:50;;;;;;;;;;;18.60;99.90;;;;;;4591554;19;20337;-25
2022/09/19 03:56:21;;;;;;;;;;;18.50;99.90;;;;;;4591507;19;19951;-23
2022/09/19 03:57:54;;;;;;;;;;;18.50;99.90;;;;;;4591464;19;19915;-26
2022/09/19 03:59:25;;;;;;;;;;;18.50;99.90;;;;;;4591262;19;19919;-28
2022/09/19 04:00:56;;;;;;;;;;;18.50;99.90;;;;;;4591170;19;19929;-26
2022/09/19 04:02:27;;;;;;;;;;;18.50;99.90;;;;;;4591336;19;19910;-26
2022/09/19 04:03:59;;;;;;;;;;;18.50;99.90;;;;;;4591190;19;19930;-25
2022/09/19 04:05:32;;;;;;;;;;;18.50;99.90;;;;;;4591219;19;19922;-24
2022/09/19 04:07:03;;;;;;;;;;;18.50;99.90;;;;;;4591357;19;19922;-24
2022/09/19 04:08:34;;;;;;;;;;;18.50;99.90;;;;;;4591490;19;19914;-26
2022/09/19 04:10:05;;;;;;;;;;;18.50;99.90;;;;;;4589706;19;19928;-31
2022/09/19 04:11:39;;;;;;;;;;;18.50;99.90;;;;;;4590767;19;19935;-27
2022/09/19 04:13:10;;;;;;;;;;;18.50;99.90;;;;;;4592341;19;19926;-27
2022/09/19 04:14:41;;;;;;;;;;;18.50;99.90;;;;;;4591132;19;19911;-27
2022/09/19 04:16:13;;;;;;;;;;;18.50;99.90;;;;;;4590926;19;20237;-26
2022/09/19 04:17:44;;;;;;;;;;;18.50;99.90;;;;;;4591041;19;19925;-26
2022/09/19 04:19:15;;;;;;;;;;;18.50;99.90;;;;;;4590865;19;19914;-25
2022/09/19 04:20:46;;;;;;;;;;;18.50;99.90;;;;;;4590153;19;19915;-26
2022/09/19 04:22:18;;;;;;;;;;;18.50;99.90;;;;;;4590537;19;19926;-26
2022/09/19 04:23:50;;;;;;;;;;;18.50;99.90;;;;;;4590928;19;19922;-24
2022/09/19 04:25:21;;;;;;;;;;;18.50;99.90;;;;;;4591118;19;19919;-27
2022/09/19 04:26:52;;;;;;;;;;;18.50;99.90;;;;;;4590822;19;19933;-28
2022/09/19 04:28:23;;;;;;;;;;;18.50;99.90;;;;;;4587892;19;20263;-30
2022/09/19 04:29:55;;;;;;;;;;;18.50;99.90;;;;;;4589364;19;19935;-25
2022/09/19 04:31:26;;;;;;;;;;;18.50;99.90;;;;;;4592729;19;19982;-27
2022/09/19 04:32:58;;;;;;;;;;;18.50;99.90;;;;;;4592739;19;20329;-25
2022/09/19 04:34:29;;;;;;;;;;;18.50;99.90;;;;;;4592617;19;20360;-26
2022/09/19 04:36:00;;;;;;;;;;;18.50;99.90;;;;;;4592724;19;19930;-29
2022/09/19 04:37:31;;;;;;;;;;;18.50;99.90;;;;;;4592717;19;19914;-27
2022/09/19 04:39:02;;;;;;;;;;;18.50;99.90;;;;;;4592407;19;19919;-27
2022/09/19 04:40:38;;;;;;;;;;;18.50;99.90;;;;;;4592872;19;19915;-28
2022/09/19 04:42:10;;;;;;;;;;;18.50;99.90;;;;;;4592878;19;19923;-27
2022/09/19 04:43:40;;;;;;;;;;;18.50;99.90;;;;;;4592374;19;19927;-24
2022/09/19 04:45:13;;;;;;;;;;;18.50;99.90;;;;;;4591691;19;19974;-24
2022/09/19 04:46:46;;;;;;;;;;;18.50;99.90;;;;;;4591931;19;19915;-27
2022/09/19 04:48:19;;;;;;;;;;;18.50;99.90;;;;;;4592953;19;19948;-25
2022/09/19 04:49:50;;;;;;;;;;;18.50;99.90;;;;;;4592090;19;19918;-25
2022/09/19 04:51:20;;;;;;;;;;;18.50;99.90;;;;;;4591517;19;19946;-24
2022/09/19 04:52:53;;;;;;;;;;;18.50;99.90;;;;;;4590904;19;19923;-27
2022/09/19 04:54:25;;;;;;;;;;;18.50;99.90;;;;;;4588659;19;19933;-24
2022/09/19 04:55:56;;;;;;;;;;;18.50;99.90;;;;;;4588887;19;19923;-27
2022/09/19 04:57:27;;;;;;;;;;;18.50;99.90;;;;;;4589142;19;19915;-26
2022/09/19 04:59:02;;;;;;;;;;;18.50;99.90;;;;;;4589174;19;20264;-27
2022/09/19 05:00:40;;;;;;;;;;;18.50;99.90;;;;;;4589701;19;20340;-26
2022/09/19 05:02:13;;;;;;;;;;;18.50;99.90;;;;;;4589477;19;19911;-27
2022/09/19 05:03:44;;;;;;;;;;;18.50;99.90;;;;;;4589234;19;19925;-26
2022/09/19 05:05:17;;;;;;;;;;;18.50;99.90;;;;;;4589498;19;20256;-24
2022/09/19 05:06:49;;;;;;;;;;;18.50;99.90;;;;;;4589277;19;20281;-27
2022/09/19 05:08:24;;;;;;;;;;;18.50;99.90;;;;;;4589489;19;19923;-24
2022/09/19 05:09:55;;;;;;;;;;;18.50;99.90;;;;;;4588656;19;20347;-24
2022/09/19 05:11:27;;;;;;;;;;;18.50;99.90;;;;;;4589889;19;19918;-23
2022/09/19 05:12:58;;;;;;;;;;;18.50;99.90;;;;;;4589081;19;19926;-26
2022/09/19 05:14:30;;;;;;;;;;;18.50;99.90;;;;;;4588472;19;19919;-25
2022/09/19 05:16:02;;;;;;;;;;;18.50;99.90;;;;;;4589329;19;20353;-23
2022/09/19 05:17:33;;;;;;;;;;;18.50;99.90;;;;;;4588744;19;19934;-25
2022/09/19 05:19:04;;;;;;;;;;;18.50;99.90;;;;;;4589078;19;20271;-24
2022/09/19 05:20:35;;;;;;;;;;;18.50;99.90;;;;;;4588874;19;19922;-25
2022/09/19 05:22:06;;;;;;;;;;;18.50;99.90;;;;;;4589461;19;20387;-27
2022/09/19 05:23:37;;;;;;;;;;;18.50;99.90;;;;;;4589429;19;20292;-22
2022/09/19 05:25:09;;;;;;;;;;;18.50;99.90;;;;;;4589258;19;19926;-24
2022/09/19 05:26:40;;;;;;;;;;;18.50;99.90;;;;;;4589151;19;19915;-28
2022/09/19 05:28:11;;;;;;;;;;;18.50;99.90;;;;;;4589039;19;20337;-28
2022/09/19 05:29:51;;;;;;;;;;;18.50;99.90;;;;;;4588952;19;19932;-23
2022/09/19 05:31:22;;;;;;;;;;;18.50;99.90;;;;;;4589162;19;19958;-25
2022/09/19 05:32:54;;;;;;;;;;;18.50;99.90;;;;;;4588017;19;19923;-24
2022/09/19 05:34:26;;;;;;;;;;;18.50;99.90;;;;;;4588582;19;19915;-25
2022/09/19 05:36:00;;;;;;;;;;;18.50;99.90;;;;;;4587718;19;19962;-23
2022/09/19 05:37:31;;;;;;;;;;;18.50;99.90;;;;;;4589405;19;19919;-24
2022/09/19 05:39:02;;;;;;;;;;;18.50;99.90;;;;;;4589758;19;19927;-28
2022/09/19 05:40:33;;;;;;;;;;;18.50;99.90;;;;;;4587016;19;19945;-25
2022/09/19 05:42:04;;;;;;;;;;;18.50;99.90;;;;;;4587340;19;19922;-25
2022/09/19 05:43:35;;;;;;;;;;;18.50;99.90;;;;;;4586356;19;19914;-24
2022/09/19 05:45:06;;;;;;;;;;;18.50;99.90;;;;;;4587606;19;19915;-27
2022/09/19 05:46:38;;;;;;;;;;;18.50;99.90;;;;;;4588813;19;19922;-24
2022/09/19 05:48:09;;;;;;;;;;;18.50;99.90;;;;;;4589196;19;20254;-27
2022/09/19 05:49:40;;;;;;;;;;;18.60;99.90;;;;;;4587385;19;19923;-26
2022/09/19 05:51:11;;;;;;;;;;;18.50;99.90;;;;;;4587991;19;19919;-24
2022/09/19 05:54:32;;;;;;;;;;;18.60;99.90;;;;;;4587757;19;19940;-27
2022/09/19 05:56:04;;;;;;;;;;;18.60;99.90;;;;;;4587339;19;19923;-27
2022/09/19 05:57:35;;;;;;;;;;;18.60;99.90;;;;;;4587401;19;19923;-26
2022/09/19 05:59:05;;;;;;;;;;;18.60;99.90;;;;;;4589790;19;19930;-28
2022/09/19 06:00:37;;;;;;;;;;;18.60;99.90;;;;;;4589823;19;19915;-24
2022/09/19 06:02:10;;;;;;;;;;;18.60;99.90;;;;;;4589460;19;19946;-25
2022/09/19 06:03:41;;;;;;;;;;;18.60;99.90;;;;;;4588931;19;19922;-23
2022/09/19 06:05:11;;;;;;;;;;;18.30;99.90;;;;;;4592672;19;19919;-23
2022/09/19 06:06:43;;;;;;;;;;;16.10;99.90;;;;;;4591459;19;19939;-24
2022/09/19 06:08:14;;;;;;;;;;;15.30;99.90;;;;;;4591780;19;19922;-25
2022/09/19 06:09:45;;;;;;;;;;;14.90;99.90;;;;;;4590942;19;20328;-24
2022/09/19 06:11:16;;;;;;;;;;;14.70;99.90;;;;;;4591635;19;19919;-25
2022/09/19 06:12:47;;;;;;;;;;;14.70;99.90;;;;;;4589884;19;19942;-26
2022/09/19 06:14:23;;;;;;;;;;;14.60;99.90;;;;;;4594030;19;19918;-25
2022/09/19 06:15:54;;;;;;;;;;;14.50;99.90;;;;;;4593872;19;20248;-24
2022/09/19 06:17:26;;;;;;;;;;;14.50;99.90;;;;;;4593398;19;19927;-24
2022/09/19 06:18:57;;;;;;;;;;;14.50;99.90;;;;;;4592965;19;19919;-24
2022/09/19 06:20:29;;;;;;;;;;;14.50;99.90;;;;;;4592667;19;19927;-26
2022/09/19 06:22:00;;;;;;;;;;;14.40;99.90;;;;;;4592381;19;19938;-27
2022/09/19 06:23:31;;;;;;;;;;;14.40;99.90;;;;;;4590534;19;19919;-25
2022/09/19 06:25:03;;;;;;;;;;;14.40;99.90;;;;;;4590655;19;20310;-24
2022/09/19 06:26:34;;;;;;;;;;;14.30;99.90;;;;;;4590138;19;19945;-25
2022/09/19 06:28:10;;;;;;;;;;;14.30;99.90;;;;;;4591537;19;19926;-24
2022/09/19 06:29:41;;;;;;;;;;;14.30;99.90;;;;;;4591140;19;19926;-26
2022/09/19 06:31:12;;;;;;;;;;;14.30;99.90;;;;;;4592501;19;19932;-24
2022/09/19 06:32:44;;;;;;;;;;;14.30;99.90;;;;;;4592852;19;19921;-27
2022/09/19 06:34:15;;;;;;;;;;;14.30;99.90;;;;;;4592869;19;20333;-24
2022/09/19 06:35:47;;;;;;;;;;;14.20;99.90;;;;;;4592060;19;19915;-23
2022/09/19 06:37:18;;;;;;;;;;;14.20;99.90;;;;;;4592721;19;20002;-26
2022/09/19 06:38:49;;;;;;;;;;;14.20;99.90;;;;;;4592602;19;19919;-22
2022/09/19 06:40:22;;;;;;;;;;;14.20;99.90;;;;;;4592604;19;20247;-23
2022/09/19 06:41:54;;;;;;;;;;;14.20;99.90;;;;;;4592907;19;19919;-26
2022/09/19 06:43:26;;;;;;;;;;;14.20;99.90;;;;;;4591963;19;19931;-25
2022/09/19 06:44:57;;;;;;;;;;;14.20;99.90;;;;;;4592879;19;19919;-26
2022/09/19 06:46:30;;;;;;;;;;;14.20;99.90;;;;;;4592873;19;20340;-26
2022/09/19 06:48:01;;;;;;;;;;;14.20;99.90;;;;;;4592823;19;20267;-26
2022/09/19 06:49:36;;;;;;;;;;;14.10;99.90;;;;;;4591882;19;19929;-26
2022/09/19 06:51:07;;;;;;;;;;;14.20;99.90;;;;;;4593086;19;19940;-25
2022/09/19 06:52:38;;;;;;;;;;;14.20;99.90;;;;;;4592607;19;19948;-28
2022/09/19 06:54:09;;;;;;;;;;;14.10;99.90;;;;;;4591617;19;20363;-23
2022/09/19 06:55:41;;;;;;;;;;;14.10;99.90;;;;;;4592386;19;19926;-26
2022/09/19 06:57:12;;;;;;;;;;;14.10;99.90;;;;;;4591448;19;19923;-26
2022/09/19 06:58:43;;;;;;;;;;;14.10;99.90;;;;;;4592063;19;20328;-23
2022/09/19 07:00:19;;;;;;;;;;;14.10;99.90;;;;;;4591471;19;19919;-25
2022/09/19 07:01:51;;;;;;;;;;;14.10;99.90;;;;;;4591901;19;19935;-24
2022/09/19 07:03:24;;;;;;;;;;;14.10;99.90;;;;;;4591323;19;19928;-22
2022/09/19 07:04:56;;;;;;;;;;;14.10;99.90;;;;;;4592247;19;19919;-24
2022/09/19 07:06:27;;;;;;;;;;;14.10;99.90;;;;;;4592165;19;19918;-25
2022/09/19 07:08:01;;;;;;;;;;;14.10;99.90;;;;;;4591658;19;20281;-25
2022/09/19 07:09:32;;;;;;;;;;;14.10;99.90;;;;;;4591181;19;19927;-25
2022/09/19 07:11:04;;;;;;;;;;;14.10;99.90;;;;;;4591872;19;19919;-24
2022/09/19 07:12:35;;;;;;;;;;;14.00;99.90;;;;;;4589717;19;19919;-26
2022/09/19 07:14:08;;;;;;;;;;;14.10;99.90;;;;;;4593267;19;19915;-26
2022/09/19 07:15:39;;;;;;;;;;;14.00;99.90;;;;;;4592010;19;19923;-25
2022/09/19 07:17:15;;;;;;;;;;;14.00;99.90;;;;;;4591687;19;19953;-29
2022/09/19 07:18:46;;;;;;;;;;;14.10;99.90;;;;;;4591652;19;19919;-28
2022/09/19 07:20:17;;;;;;;;;;;14.10;99.90;;;;;;4592127;19;20004;-25
2022/09/19 07:21:50;;;;;;;;;;;14.10;99.90;;;;;;4591994;19;20017;-25
2022/09/19 07:23:21;;;;;;;;;;;14.10;99.90;;;;;;4591021;19;19993;-24
2022/09/19 07:24:54;;;;;;;;;;;14.10;99.90;;;;;;4591791;19;19919;-26
2022/09/19 07:26:25;;;;;;;;;;;14.10;99.90;;;;;;4591389;19;19922;-23
2022/09/19 07:27:59;;;;;;;;;;;14.20;99.90;;;;;;4590562;19;19926;-24
2022/09/19 07:29:30;;;;;;;;;;;14.60;99.90;;;;;;4590035;19;19937;-25
2022/09/19 07:31:01;;;;;;;;;;;15.20;99.90;;;;;;4591799;19;19945;-29
2022/09/19 07:32:32;;;;;;;;;;;15.50;99.90;;;;;;4592140;19;19921;-26
2022/09/19 07:34:04;;;;;;;;;;;15.80;99.90;;;;;;4591796;19;20302;-26
2022/09/19 07:35:35;;;;;;;;;;;15.30;99.90;;;;;;4591452;19;20333;-26
2022/09/19 07:37:06;;;;;;;;;;;15.50;99.90;;;;;;4590349;19;19922;-27
2022/09/19 07:38:37;;;;;;;;;;;15.80;99.90;;;;;;4591479;19;19943;-24
2022/09/19 07:40:09;;;;;;;;;;;16.10;99.90;;;;;;4590543;19;20363;-27
2022/09/19 07:41:40;;;;;;;;;;;16.30;99.90;;;;;;4591117;19;20347;-25
2022/09/19 07:43:14;;;;;;;;;;;16.50;99.90;;;;;;4590747;19;19939;-24
2022/09/19 07:44:48;;;;;;;;;;;16.60;99.90;;;;;;4591574;19;19953;-26
2022/09/19 07:46:23;;;;;;;;;;;16.80;99.90;;;;;;4591534;19;19947;-22
2022/09/19 07:47:55;;;;;;;;;;;16.90;99.90;;;;;;4591329;19;20263;-24
2022/09/19 07:49:26;;;;;;;;;;;17.00;99.90;;;;;;4590918;19;20007;-27
2022/09/19 07:50:57;;;;;;;;;;;17.00;99.90;;;;;;4591360;19;20362;-26
2022/09/19 07:52:28;;;;;;;;;;;17.10;99.90;;;;;;4591366;19;19914;-27
2022/09/19 07:53:59;;;;;;;;;;;17.20;99.90;;;;;;4590524;19;19922;-24
2022/09/19 07:55:30;;;;;;;;;;;17.30;99.90;;;;;;4591473;19;20236;-25
2022/09/19 07:57:01;;;;;;;;;;;17.30;99.90;;;;;;4590348;19;19926;-23
2022/09/19 07:58:34;;;;;;;;;;;17.40;99.90;;;;;;4591039;19;19919;-27
2022/09/19 08:00:05;;;;;;;;;;;17.40;99.90;;;;;;4591376;19;19918;-28
2022/09/19 08:01:36;;;;;;;;;;;17.40;99.90;;;;;;4590406;19;20581;-26
2022/09/19 08:03:11;;;;;;;;;;;17.40;99.90;;;;;;4588473;19;19918;-26
2022/09/19 08:04:43;;;;;;;;;;;17.50;99.90;;;;;;4590101;19;20034;-26
2022/09/19 08:06:26;;;;;;;;;;;17.50;99.90;;;;;;4587883;19;19945;-27
2022/09/19 08:07:57;;;;;;;;;;;17.60;99.90;;;;;;4589980;19;19919;-27
2022/09/19 08:09:28;;;;;;;;;;;17.60;99.90;;;;;;4588739;19;19925;-24
2022/09/19 08:11:00;;;;;;;;;;;17.70;99.90;;;;;;4589969;19;19915;-25
2022/09/19 08:12:31;;;;;;;;;;;17.70;99.90;;;;;;4589863;19;19922;-28
2022/09/19 08:14:03;;;;;;;;;;;17.70;99.90;;;;;;4592700;19;19930;-27
2022/09/19 08:15:35;;;;;;;;;;;17.70;99.90;;;;;;4590190;19;19939;-25
2022/09/19 08:17:06;;;;;;;;;;;17.70;99.90;;;;;;4589069;19;19927;-24
2022/09/19 08:18:40;;;;;;;;;;;17.70;99.90;;;;;;4589783;19;20283;-26
2022/09/19 08:20:22;;;;;;;;;;;17.80;99.90;;;;;;4589861;19;19927;-27
2022/09/19 08:21:53;;;;;;;;;;;17.80;99.90;;;;;;4590187;19;19926;-27
2022/09/19 08:23:47;;;;;;;;;;;17.80;99.90;;;;;;4588592;19;19931;-26
2022/09/19 08:25:20;;;;;;;;;;;17.80;99.90;;;;;;4588691;19;19974;-23
2022/09/19 08:26:50;;;;;;;;;;;17.90;99.90;;;;;;4587636;19;19933;-26
2022/09/19 08:28:21;;;;;;;;;;;17.90;99.90;;;;;;4589860;19;20313;-26
2022/09/19 08:29:56;;;;;;;;;;;17.90;99.90;;;;;;4589013;19;19918;-26
2022/09/19 08:31:30;;;;;;;;;;;17.90;99.90;;;;;;4589747;19;20447;-27
2022/09/19 08:33:02;;;;;;;;;;;17.90;99.90;;;;;;4590790;19;20248;-27
2022/09/19 08:34:33;;;;;;;;;;;17.90;99.90;;;;;;4590061;19;19915;-26
2022/09/19 08:36:04;;;;;;;;;;;18.00;99.90;;;;;;4588359;19;19955;-27
2022/09/19 08:37:36;;;;;;;;;;;18.00;99.90;;;;;;4588313;19;19919;-25
2022/09/19 08:39:08;;;;;;;;;;;18.00;99.90;;;;;;4589116;19;19996;-28
2022/09/19 08:40:44;;;;;;;;;;;18.00;99.90;;;;;;4588824;19;19922;-24
2022/09/19 08:42:24;;;;;;;;;;;18.00;99.90;;;;;;4587493;19;19919;-26
2022/09/19 08:44:14;;;;;;;;;;;18.00;99.90;;;;;;4588188;19;19918;-26
2022/09/19 08:45:57;;;;;;;;;;;18.00;99.90;;;;;;4588434;19;19915;-25
2022/09/19 08:47:30;;;;;;;;;;;18.00;99.90;;;;;;4588136;19;19925;-24
2022/09/19 08:49:03;;;;;;;;;;;18.10;99.90;;;;;;4586614;19;20012;-24
2022/09/19 08:50:34;;;;;;;;;;;18.10;99.90;;;;;;4589058;19;19923;-26
2022/09/19 08:52:06;;;;;;;;;;;18.10;99.90;;;;;;4589930;19;19914;-27
2022/09/19 08:53:40;;;;;;;;;;;18.10;99.90;;;;;;4589304;19;19939;-25
2022/09/19 08:55:14;;;;;;;;;;;18.10;99.90;;;;;;4589073;19;20337;-24
2022/09/19 08:56:45;;;;;;;;;;;18.10;99.90;;;;;;4588656;19;20025;-25
2022/09/19 08:58:17;;;;;;;;;;;18.20;99.90;;;;;;4588590;19;19953;-27
2022/09/19 08:59:50;;;;;;;;;;;18.20;99.90;;;;;;4588745;19;19967;-28
2022/09/19 09:01:22;;;;;;;;;;;18.20;99.90;;;;;;4588012;19;19911;-27
2022/09/19 09:03:03;;;;;;;;;;;18.20;99.90;;;;;;4589122;19;19919;-28
2022/09/19 09:04:35;;;;;;;;;;;18.20;99.90;;;;;;4590033;19;19915;-24
2022/09/19 09:06:12;;;;;;;;;;;18.20;99.90;;;;;;4589948;19;19927;-27